Time;durP1;ratioP1;P1;durP2;ratioP2;P2;SDS_P1;SDS_P2;PMS_P1;PMS_P2;Temp;Humidity;BMP_temperature;BMP_pressure;BME280_temperature;BME280_humidity;BME280_pressure;Samples;Min_cycle;Max_cycle;Signal;HPM_P1;HPM_P2
2023/08/17 00:02:18;;;;;;;7.80;4.70;;;;;;;22.49;100.00;100211.02;103777;1267;61397;-62
2023/08/17 00:04:45;;;;;;;6.20;5.00;;;;;;;22.48;100.00;100213.27;103641;1270;60708;-62
2023/08/17 00:07:13;;;;;;;5.10;4.60;;;;;;;22.49;100.00;100213.39;103569;1270;72828;-62
2023/08/17 00:09:40;;;;;;;6.70;4.40;;;;;;;22.44;100.00;100212.88;103522;1272;70045;-62
2023/08/17 00:12:10;;;;;;;5.50;5.00;;;;;;;22.38;100.00;100210.73;103481;1280;72402;-62
2023/08/17 00:14:38;;;;;;;5.50;5.00;;;;;;;22.36;100.00;100211.09;106864;1263;184003;-63
2023/08/17 00:17:06;;;;;;;8.30;5.10;;;;;;;22.33;100.00;100211.64;107164;1263;59670;-63
2023/08/17 00:19:33;;;;;;;5.60;4.90;;;;;;;22.30;100.00;100214.23;105447;1264;71917;-62
2023/08/17 00:22:01;;;;;;;6.00;5.40;;;;;;;22.24;100.00;100215.59;103951;1264;68230;-61
2023/08/17 00:24:29;;;;;;;5.40;5.10;;;;;;;22.16;100.00;100218.55;104001;1267;72567;-63
2023/08/17 00:26:56;;;;;;;;;;;;;;;22.15;100.00;100218.28;103908;1275;61378;-62
2023/08/17 00:29:24;;;;;;;5.40;4.90;;;;;;;22.10;100.00;100222.06;103742;1264;59730;-62
2023/08/17 00:31:52;;;;;;;6.20;5.40;;;;;;;22.02;100.00;100224.91;104310;1260;72848;-61
2023/08/17 00:34:20;;;;;;;5.40;5.00;;;;;;;22.04;100.00;100222.23;104446;1257;69464;-65
2023/08/17 00:36:47;;;;;;;5.10;4.50;;;;;;;22.00;100.00;100225.75;104193;1257;72356;-63
2023/08/17 00:39:15;;;;;;;;;;;;;;;21.98;100.00;100227.88;104174;1257;61792;-62
2023/08/17 00:41:42;;;;;;;6.20;4.90;;;;;;;21.92;100.00;100223.15;104275;1257;59877;-62
2023/08/17 00:44:12;;;;;;;5.90;5.20;;;;;;;21.88;100.00;100223.38;103957;1279;73687;-62
2023/08/17 00:46:40;;;;;;;7.00;5.80;;;;;;;21.85;100.00;100225.23;104028;1264;69206;-62
2023/08/17 00:49:10;;;;;;;5.20;4.80;;;;;;;21.83;100.00;100227.14;104386;1261;72461;-62
2023/08/17 00:51:40;;;;;;;6.20;5.20;;;;;;;21.82;100.00;100223.63;104048;1259;60644;-62
2023/08/17 00:54:07;;;;;;;6.00;5.50;;;;;;;21.81;100.00;100224.23;104097;1264;59759;-62
2023/08/17 00:56:35;;;;;;;6.20;5.70;;;;;;;21.77;100.00;100224.05;104119;1259;72888;-62
2023/08/17 00:59:06;;;;;;;7.10;5.20;;;;;;;21.75;100.00;100222.23;104382;1258;69599;-63
2023/08/17 01:01:34;;;;;;;7.50;5.30;;;;;;;21.72;100.00;100226.95;104332;1257;72403;-63
2023/08/17 01:04:02;;;;;;;5.70;5.20;;;;;;;21.69;100.00;100225.02;104342;1257;62319;-63
2023/08/17 01:06:29;;;;;;;;;;;;;;;21.71;100.00;100225.41;104118;1261;61928;-63
2023/08/17 01:08:57;;;;;;;6.10;5.30;;;;;;;21.63;100.00;100228.38;104260;1266;73286;-62
2023/08/17 01:11:32;;;;;;;6.20;4.90;;;;;;;21.56;100.00;100228.42;104410;1260;69408;-62
2023/08/17 01:14:13;;;;;;;5.30;4.90;;;;;;;21.57;100.00;100229.21;104902;1257;71932;-64
2023/08/17 01:16:50;;;;;;;5.50;4.70;;;;;;;21.56;100.00;100227.08;107642;1259;61460;-65
2023/08/17 01:19:25;;;;;;;5.50;5.00;;;;;;;21.56;100.00;100233.58;105877;1259;60511;-64
2023/08/17 01:21:55;;;;;;;5.90;5.30;;;;;;;21.54;100.00;100235.48;107802;1256;73728;-64
2023/08/17 01:24:23;;;;;;;7.60;5.00;;;;;;;21.53;100.00;100235.23;107614;1257;70003;-64
2023/08/17 01:26:50;;;;;;;7.40;5.30;;;;;;;21.53;100.00;100233.98;107645;1259;72211;-64
2023/08/17 01:29:19;;;;;;;6.70;4.80;;;;;;;21.52;100.00;100233.14;105023;1256;61441;-63
2023/08/17 01:31:50;;;;;;;7.40;5.30;;;;;;;21.51;100.00;100233.63;104645;1254;59650;-63
2023/08/17 01:34:19;;;;;;;5.90;4.90;;;;;;;21.50;100.00;100233.87;104261;1259;72832;-62
2023/08/17 01:36:52;;;;;;;7.20;4.90;;;;;;;21.48;100.00;100235.96;104347;1253;69567;-64
2023/08/17 01:39:22;;;;;;;5.70;5.30;;;;;;;21.47;100.00;100235.73;108344;1253;72331;-63
2023/08/17 01:41:50;;;;;;;6.50;5.20;;;;;;;21.41;100.00;100225.86;104634;1254;61412;-64
2023/08/17 01:44:17;;;;;;;5.20;4.80;;;;;;;21.45;100.00;100232.83;108380;1253;59781;-64
2023/08/17 01:46:45;;;;;;;5.60;5.20;;;;;;;21.46;100.00;100229.18;108300;1253;73254;-64
2023/08/17 01:49:13;;;;;;;5.90;5.20;;;;;;;21.45;100.00;100229.48;108410;1253;69169;-64
2023/08/17 01:51:40;;;;;;;5.80;5.30;;;;;;;21.42;100.00;100229.68;106205;1252;73360;-63
2023/08/17 01:54:08;;;;;;;5.90;5.40;;;;;;;21.39;100.00;100228.25;104254;1254;61360;-63
2023/08/17 01:56:36;;;;;;;7.50;5.70;;;;;;;21.36;100.00;100229.39;104319;1254;60804;-63
2023/08/17 01:59:04;;;;;;;5.30;4.80;;;;;;;21.33;100.00;100232.11;104270;1275;72899;-63
2023/08/17 02:01:31;;;;;;;6.00;5.50;;;;;;;21.30;100.00;100233.61;104297;1260;69050;-63
2023/08/17 02:04:02;;;;;;;5.60;5.20;;;;;;;21.28;100.00;100234.86;104213;1256;72468;-63
2023/08/17 02:06:30;;;;;;;5.80;5.10;;;;;;;21.27;100.00;100236.91;104391;1256;61759;-65
2023/08/17 02:08:58;;;;;;;5.90;4.80;;;;;;;21.20;100.00;100233.86;104389;1253;59675;-63
2023/08/17 02:11:27;;;;;;;5.80;5.00;;;;;;;21.12;100.00;100231.61;104281;1259;73673;-63
2023/08/17 02:13:54;;;;;;;5.90;5.40;;;;;;;21.08;100.00;100234.77;104497;1254;68290;-62
2023/08/17 02:16:22;;;;;;;5.90;5.40;;;;;;;21.04;100.00;100235.27;108387;1253;73416;-63
2023/08/17 02:18:50;;;;;;;5.40;5.00;;;;;;;21.07;100.00;100239.73;108402;1252;61653;-63
2023/08/17 02:21:20;;;;;;;5.50;5.00;;;;;;;21.05;100.00;100240.77;104454;1254;59798;-63
2023/08/17 02:23:47;;;;;;;8.30;5.60;;;;;;;21.03;100.00;100241.61;104512;1260;72774;-66
2023/08/17 02:26:17;;;;;;;6.50;5.90;;;;;;;21.01;100.00;100242.80;104328;1276;69176;-63
2023/08/17 02:28:45;;;;;;;5.40;5.00;;;;;;;21.00;100.00;100241.77;104295;1276;72521;-62
2023/08/17 02:31:12;;;;;;;5.50;5.00;;;;;;;20.98;100.00;100238.92;104407;1256;60519;-63
2023/08/17 02:33:40;;;;;;;;;;;;;;;20.96;100.00;100241.23;104302;1275;59929;-63
2023/08/17 02:36:10;;;;;;;5.80;5.30;;;;;;;20.90;100.00;100241.14;104228;1255;73265;-62
2023/08/17 02:38:38;;;;;;;6.60;5.20;;;;;;;20.87;100.00;100240.51;104259;1258;70196;-62
2023/08/17 05:38:42;;;;;;;7.40;2.90;;;;;;;24.38;100.00;100258.36;101654;1290;600730;-62
2023/08/17 05:41:10;;;;;;;5.40;3.20;;;;;;;24.40;100.00;100257.04;104926;1269;61939;-63
2023/08/17 05:43:38;;;;;;;3.50;2.70;;;;;;;24.50;100.00;100256.32;103461;1273;60248;-65
2023/08/17 05:46:05;;;;;;;;;;;;;;;24.59;100.00;100251.23;106715;1265;72080;-64
2023/08/17 05:48:33;;;;;;;3.90;2.70;;;;;;;24.67;100.00;100250.17;104074;1266;70308;-63
2023/08/17 05:51:01;;;;;;;4.00;2.80;;;;;;;24.72;100.00;100251.14;106608;1266;73318;-64
2023/08/17 05:53:28;;;;;;;5.50;2.60;;;;;;;24.81;100.00;100249.91;106909;1265;202074;-62
2023/08/17 05:55:56;;;;;;;3.00;2.40;;;;;;;24.90;100.00;100252.14;104086;1266;59593;-64
2023/08/17 05:58:24;;;;;;;3.20;2.50;;;;;;;24.98;100.00;100251.24;103758;1270;71781;-63
2023/08/17 06:00:52;;;;;;;3.00;2.70;;;;;;;25.02;100.00;100249.55;103808;1286;68510;-64
2023/08/17 06:03:20;;;;;;;8.50;2.50;;;;;;;25.10;100.00;100251.85;103849;1286;72370;-62
2023/08/17 06:05:47;;;;;;;;;;;;;;;25.18;100.00;100253.77;103836;1267;61538;-61
2023/08/17 06:08:15;;;;;;;;;;;;;;;25.28;100.00;100251.70;103740;1265;60444;-60
2023/08/17 06:10:48;;;;;;;2.80;2.10;;;;;;;25.33;100.00;100246.38;103733;1287;73333;-60
2023/08/17 06:13:15;;;;;;;6.20;2.60;;;;;;;25.40;100.00;100248.04;103823;1286;69627;-60
2023/08/17 06:15:43;;;;;;;2.90;2.00;;;;;;;25.45;100.00;100248.23;103872;1286;73337;-60
2023/08/17 06:18:11;;;;;;;3.40;2.60;;;;;;;25.51;100.00;100247.09;103855;1280;61424;-61
2023/08/17 06:20:39;;;;;;;5.30;2.10;;;;;;;25.59;100.00;100248.44;103870;1280;59842;-61
2023/08/17 06:23:07;;;;;;;;;;;;;;;25.68;100.00;100244.94;103767;1264;72840;-60
2023/08/17 06:25:34;;;;;;;3.70;1.90;;;;;;;25.75;100.00;100243.52;106246;1263;69458;-61
2023/08/17 06:28:02;;;;;;;4.50;2.10;;;;;;;25.84;100.00;100243.53;107044;1264;72337;-61
2023/08/17 06:30:30;;;;;;;2.80;2.30;;;;;;;25.97;100.00;100243.01;106514;1263;61403;-62
2023/08/17 06:32:58;;;;;;;7.20;2.50;;;;;;;26.05;100.00;100240.67;103605;1264;60308;-63
2023/08/17 06:35:26;;;;;;;3.40;2.40;;;;;;;26.19;100.00;100245.60;103762;1269;72502;-62
2023/08/17 06:37:57;;;;;;;2.70;1.80;;;;;;;26.25;100.00;100247.13;103851;1286;69309;-61
2023/08/17 06:40:26;;;;;;;4.90;1.90;;;;;;;26.31;100.00;100243.31;103614;1287;72887;-61
2023/08/17 06:42:56;;;;;;;3.20;2.30;;;;;;;26.39;100.00;100243.41;103699;1266;61783;-61
2023/08/17 06:45:24;;;;;;;2.80;2.10;;;;;;;26.47;100.00;100248.00;103753;1266;60288;-61
2023/08/17 06:47:51;;;;;;;;;;;;;;;26.58;100.00;100241.73;103934;1286;72795;-62
2023/08/17 06:50:19;;;;;;;3.60;2.40;;;;;;;26.68;100.00;100242.19;103875;1286;69844;-60
2023/08/17 06:52:47;;;;;;;3.90;1.60;;;;;;;26.74;100.00;100241.67;103873;1287;71071;-61
2023/08/17 06:55:16;;;;;;;3.10;1.80;;;;;;;26.82;100.00;100241.05;103874;1264;60613;-62
2023/08/17 06:57:44;;;;;;;4.90;1.90;;;;;;;26.91;100.00;100240.11;103756;1269;60774;-61
2023/08/17 07:00:13;;;;;;;6.10;1.80;;;;;;;26.99;100.00;100238.08;103878;1269;73274;-61
2023/08/17 07:02:40;;;;;;;3.50;2.00;;;;;;;27.05;100.00;100240.92;103906;1268;69086;-62
2023/08/17 07:05:21;;;;;;;2.70;1.80;;;;;;;27.12;100.00;100239.94;103872;1267;72401;-62
2023/08/17 07:07:49;;;;;;;2.70;1.80;;;;;;;27.20;100.00;100239.17;103920;1266;59833;-62
2023/08/17 07:10:16;;;;;;;;;;;;;;;27.28;100.00;100234.77;103878;1269;59765;-62
2023/08/17 07:12:44;;;;;;;4.10;1.70;;;;;;;27.34;99.86;100232.94;103857;1268;72918;-60
2023/08/17 07:15:12;;;;;;;1.80;1.70;;;;;;;27.40;99.89;100230.52;103941;1263;69021;-60
2023/08/17 07:17:40;;;;;;;2.30;1.80;;;;;;;27.48;99.70;100230.36;103913;1264;73381;-61
2023/08/17 07:20:09;;;;;;;1.90;1.70;;;;;;;27.54;98.27;100228.23;106870;1263;59774;-63
2023/08/17 07:22:40;;;;;;;4.90;2.10;;;;;;;27.63;97.31;100223.10;107050;1263;59652;-62
2023/08/17 07:25:08;;;;;;;5.00;1.90;;;;;;;27.72;97.11;100220.44;107252;1263;72802;-63
2023/08/17 07:27:36;;;;;;;5.50;1.60;;;;;;;27.82;97.04;100221.01;107191;1263;70118;-62
2023/08/17 07:30:05;;;;;;;;;;;;;;;27.93;94.23;100217.30;106105;1266;72874;-62
2023/08/17 07:32:33;;;;;;;1.90;1.50;;;;;;;28.05;89.96;100217.02;105994;1266;60328;-62
2023/08/17 07:35:03;;;;;;;3.50;2.00;;;;;;;28.09;89.95;100217.95;103666;1264;59806;-62
2023/08/17 07:37:33;;;;;;;4.80;1.70;;;;;;;28.17;90.09;100222.92;103904;1263;72842;-63
2023/08/17 07:40:04;;;;;;;2.60;1.90;;;;;;;28.25;91.37;100222.56;103886;1269;69175;-62
2023/08/17 07:42:32;;;;;;;5.20;2.20;;;;;;;28.28;88.96;100221.50;104019;1258;72318;-61
2023/08/17 07:45:04;;;;;;;3.60;1.90;;;;;;;28.33;90.92;100224.41;104078;1273;59977;-60
2023/08/17 07:47:34;;;;;;;3.10;2.10;;;;;;;28.39;88.73;100221.81;104125;1263;59754;-59
2023/08/17 07:50:06;;;;;;;5.30;1.70;;;;;;;28.45;85.62;100226.86;107602;1257;73310;-61
2023/08/17 07:52:34;;;;;;;1.90;1.70;;;;;;;28.50;83.67;100224.68;107174;1256;69357;-60
2023/08/17 07:55:03;;;;;;;4.70;1.90;;;;;;;28.52;81.79;100218.40;107729;1257;72962;-61
2023/08/17 07:57:32;;;;;;;4.50;1.60;;;;;;;28.62;81.09;100226.52;107705;1257;59990;-61
2023/08/17 08:00:00;;;;;;;;;;;;;;;28.73;79.71;100224.90;107936;1255;59910;-61
2023/08/17 08:02:34;;;;;;;3.90;1.80;;;;;;;28.86;79.75;100225.16;104765;1262;72225;-61
2023/08/17 08:05:02;;;;;;;2.90;1.60;;;;;;;28.95;79.16;100225.35;104703;1260;69409;-62
2023/08/17 08:07:30;;;;;;;4.30;1.80;;;;;;;29.08;79.44;100222.16;104135;1271;72466;-60
2023/08/17 12:16:24;;;;;;;10.10;2.40;;;;;;;31.97;46.07;100088.81;101836;1295;601329;-61
2023/08/17 12:18:52;;;;;;;2.60;1.60;;;;;;;32.32;45.02;100091.25;103837;1267;59706;-60
2023/08/17 12:21:21;;;;;;;3.60;1.60;;;;;;;32.41;44.86;100089.05;103658;1267;59699;-60
2023/08/17 12:23:49;;;;;;;6.80;1.60;;;;;;;32.41;44.99;100086.30;106212;1266;72210;-60
2023/08/17 12:26:21;;;;;;;2.00;1.20;;;;;;;32.40;45.26;100088.56;103674;1267;69536;-60
2023/08/17 12:28:49;;;;;;;3.30;1.40;;;;;;;32.47;44.74;100085.38;103874;1281;72575;-61
2023/08/17 12:31:21;;;;;;;3.40;1.60;;;;;;;32.51;45.06;100086.80;103680;1276;60998;-61
2023/08/17 12:33:50;;;;;;;4.90;1.60;;;;;;;32.55;45.44;100083.91;104322;1264;59685;-62
2023/08/17 12:36:18;;;;;;;4.20;1.70;;;;;;;32.59;45.82;100084.12;103958;1283;72064;-60
2023/08/17 12:38:47;;;;;;;4.60;1.80;;;;;;;32.63;45.36;100081.94;103845;1264;69560;-59
2023/08/17 12:41:17;;;;;;;5.60;1.70;;;;;;;32.63;44.73;100079.49;103872;1285;72531;-59
2023/08/17 12:43:45;;;;;;;2.60;1.30;;;;;;;32.63;44.99;100079.54;103967;1269;60729;-59
2023/08/17 12:46:13;;;;;;;3.10;1.60;;;;;;;32.63;44.92;100077.16;104006;1264;59976;-59
2023/08/17 12:48:40;;;;;;;6.00;1.50;;;;;;;32.64;44.61;100079.95;104239;1277;72696;-60
2023/08/17 12:51:08;;;;;;;2.80;1.50;;;;;;;32.64;44.81;100076.66;103881;1263;69760;-59
2023/08/17 12:53:36;;;;;;;3.00;1.60;;;;;;;32.67;44.91;100082.36;103832;1264;72390;-60
2023/08/17 12:56:04;;;;;;;1.90;1.50;;;;;;;32.69;44.80;100080.16;103955;1263;60750;-59
2023/08/17 12:58:31;;;;;;;4.60;2.00;;;;;;;32.71;44.78;100073.21;103993;1267;59899;-60
2023/08/17 13:00:59;;;;;;;;;;;;;;;32.76;44.58;100068.85;103895;1264;73002;-60
2023/08/17 13:03:27;;;;;;;2.80;1.50;;;;;;;32.76;44.93;100070.63;103922;1269;69336;-60
2023/08/17 13:05:55;;;;;;;3.60;1.30;;;;;;;32.73;43.88;100069.52;103979;1264;73315;-60
2023/08/17 13:08:22;;;;;;;4.30;1.30;;;;;;;32.66;43.47;100069.88;104068;1264;60788;-60
2023/08/17 13:10:50;;;;;;;2.20;1.40;;;;;;;32.59;43.57;100068.38;103910;1263;59771;-61
2023/08/17 13:13:18;;;;;;;;;;;;;;;32.61;44.31;100061.81;103880;1279;71812;-59
2023/08/17 13:15:46;;;;;;;1.50;1.40;;;;;;;32.70;44.32;100056.42;104033;1269;69664;-59
2023/08/17 13:18:14;;;;;;;7.20;1.20;;;;;;;32.78;43.83;100049.64;103932;1268;72396;-58
2023/08/17 13:20:41;;;;;;;4.40;1.30;;;;;;;32.82;44.38;100053.23;104030;1263;59786;-58
2023/08/17 13:23:10;;;;;;;2.90;1.10;;;;;;;32.92;45.24;100049.63;106868;1262;59990;-59
2023/08/17 13:25:37;;;;;;;1.30;1.30;;;;;;;33.01;44.88;100051.02;105952;1263;72886;-59
2023/08/17 13:28:05;;;;;;;1.40;1.30;;;;;;;33.07;44.26;100053.27;104261;1263;69361;-60
2023/08/17 13:30:33;;;;;;;;;;;;;;;33.10;43.87;100053.75;104099;1266;72330;-58
2023/08/17 13:33:00;;;;;;;2.10;1.00;;;;;;;33.13;43.30;100054.09;104699;1257;61240;-59
2023/08/17 13:35:28;;;;;;;3.40;1.20;;;;;;;33.12;43.59;100055.34;104517;1257;59728;-59
2023/08/17 13:37:57;;;;;;;2.10;1.30;;;;;;;33.12;43.00;100045.77;104463;1257;72882;-59
2023/08/17 13:40:25;;;;;;;7.80;1.70;;;;;;;33.11;43.31;100045.77;104145;1257;69451;-59
2023/08/17 13:42:53;;;;;;;1.40;1.30;;;;;;;33.13;43.51;100045.74;104482;1257;73362;-59
2023/08/17 13:45:20;;;;;;;5.80;1.50;;;;;;;33.11;44.16;100050.98;104220;1257;59814;-58
2023/08/17 13:47:48;;;;;;;5.00;1.60;;;;;;;33.05;43.70;100051.13;104230;1258;59758;-60
2023/08/17 13:50:18;;;;;;;3.00;1.20;;;;;;;32.99;42.65;100050.16;104291;1256;72861;-60
2023/08/17 13:52:46;;;;;;;3.20;1.30;;;;;;;32.84;42.95;100048.63;104618;1257;69124;-59
2023/08/17 13:55:14;;;;;;;1.30;1.20;;;;;;;32.81;43.68;100047.40;104233;1260;72452;-59
2023/08/17 13:57:42;;;;;;;1.40;1.10;;;;;;;32.74;43.07;100049.80;108055;1254;60561;-60
2023/08/17 14:00:11;;;;;;;4.80;1.30;;;;;;;32.76;43.82;100046.24;106528;1253;59829;-59
2023/08/17 14:02:39;;;;;;;1.90;1.50;;;;;;;32.79;43.92;100047.09;105144;1256;73649;-59
2023/08/17 14:05:07;;;;;;;2.70;1.30;;;;;;;32.83;43.97;100045.30;104643;1274;69318;-59
2023/08/17 14:07:37;;;;;;;3.90;1.70;;;;;;;32.83;43.90;100045.55;104605;1254;73347;-58
2023/08/17 14:10:05;;;;;;;3.70;1.30;;;;;;;32.85;43.97;100043.23;104448;1253;59769;-59
2023/08/17 14:12:40;;;;;;;2.30;1.30;;;;;;;32.88;43.40;100045.52;104461;1269;61223;-59
2023/08/17 14:15:08;;;;;;;4.80;1.30;;;;;;;32.85;43.14;100045.45;104824;1256;72890;-59
2023/08/17 14:17:36;;;;;;;4.60;1.40;;;;;;;32.84;43.97;100046.11;104459;1257;69733;-59
2023/08/17 14:20:04;;;;;;;5.40;1.30;;;;;;;32.85;43.67;100044.83;104595;1256;73220;-60
2023/08/17 14:22:32;;;;;;;3.20;1.40;;;;;;;32.89;43.35;100047.69;108565;1251;60014;-60
2023/08/17 14:24:59;;;;;;;3.80;1.40;;;;;;;32.89;43.20;100041.82;107690;1254;59941;-61
2023/08/17 14:27:27;;;;;;;5.60;1.60;;;;;;;32.96;43.38;100046.89;104827;1269;73456;-61
2023/08/17 14:30:01;;;;;;;1.30;1.20;;;;;;;32.99;42.58;100042.51;104762;1256;68154;-60
2023/08/17 14:32:28;;;;;;;2.60;1.40;;;;;;;32.92;42.51;100042.35;108587;1251;72852;-61
2023/08/17 14:35:01;;;;;;;3.70;1.20;;;;;;;32.92;43.48;100043.94;107000;1251;59818;-60
2023/08/17 14:37:30;;;;;;;1.80;1.30;;;;;;;32.94;43.21;100040.02;104316;1256;59963;-60
2023/08/17 14:39:58;;;;;;;5.00;1.40;;;;;;;32.96;43.18;100039.05;104497;1251;72905;-60
2023/08/17 14:42:26;;;;;;;2.90;1.30;;;;;;;33.01;43.43;100034.24;104883;1251;69388;-60
2023/08/17 14:44:54;;;;;;;2.60;1.40;;;;;;;33.07;43.64;100033.61;104722;1253;72459;-60
2023/08/17 14:47:22;;;;;;;3.10;1.10;;;;;;;33.11;44.02;100029.80;105216;1251;59807;-60
2023/08/17 14:49:50;;;;;;;2.80;1.20;;;;;;;33.14;43.34;100032.96;104516;1255;59768;-60
2023/08/17 14:52:17;;;;;;;3.00;1.30;;;;;;;33.05;42.97;100033.60;104865;1254;73952;-59
2023/08/17 14:54:45;;;;;;;7.50;1.00;;;;;;;33.04;42.99;100030.80;104544;1253;69495;-59
2023/08/17 14:57:13;;;;;;;4.30;1.20;;;;;;;33.09;44.02;100028.98;105025;1251;72909;-62
2023/08/17 14:59:41;;;;;;;3.00;1.20;;;;;;;33.08;43.68;100025.02;104589;1254;60783;-60
2023/08/17 15:02:10;;;;;;;1.60;1.20;;;;;;;33.05;43.39;100023.63;104736;1251;59842;-60
2023/08/17 15:04:38;;;;;;;3.90;1.50;;;;;;;33.01;43.11;100024.29;105025;1257;73478;-59
2023/08/17 15:07:10;;;;;;;1.50;1.40;;;;;;;32.93;43.28;100025.96;104591;1255;69134;-60
2023/08/17 15:09:38;;;;;;;1.60;1.00;;;;;;;32.89;42.58;100025.49;104746;1256;72903;-60
2023/08/17 15:12:06;;;;;;;2.00;1.10;;;;;;;32.84;42.48;100024.11;104945;1256;59771;-60
2023/08/17 15:14:34;;;;;;;3.00;1.40;;;;;;;32.80;42.35;100021.22;105068;1255;59964;-60
2023/08/17 15:17:03;;;;;;;2.30;1.10;;;;;;;32.78;42.33;100020.23;104827;1257;72783;-59
2023/08/17 15:19:31;;;;;;;2.30;1.20;;;;;;;32.79;42.56;100021.20;104550;1256;69567;-59
2023/08/17 15:22:07;;;;;;;2.40;1.40;;;;;;;33.07;43.07;100019.75;106789;1251;71694;-60
2023/08/17 15:24:43;;;;;;;4.70;1.60;;;;;;;33.18;42.52;100020.98;108552;1251;59676;-60
2023/08/17 15:27:13;;;;;;;2.80;1.30;;;;;;;33.25;42.52;100026.26;104746;1251;60150;-59
2023/08/17 15:29:41;;;;;;;2.00;1.20;;;;;;;33.26;41.59;100024.91;104703;1256;73198;-62
2023/08/17 15:32:09;;;;;;;2.90;1.30;;;;;;;33.23;41.94;100025.98;104951;1251;69654;-60
2023/08/17 15:34:37;;;;;;;3.30;1.40;;;;;;;33.27;42.04;100029.44;105801;1251;72492;-60
2023/08/17 15:37:06;;;;;;;2.40;1.50;;;;;;;33.31;42.11;100031.52;106948;1256;62914;-60
2023/08/17 15:39:33;;;;;;;2.00;1.50;;;;;;;33.30;42.24;100032.84;104787;1256;59746;-60
2023/08/17 15:42:01;;;;;;;2.10;1.60;;;;;;;33.24;41.77;100033.13;104682;1270;72704;-60
2023/08/17 15:44:30;;;;;;;2.80;1.40;;;;;;;33.12;41.63;100031.47;104463;1257;69991;-60
2023/08/17 15:46:58;;;;;;;1.60;1.30;;;;;;;33.02;42.21;100034.66;104622;1254;72603;-60
2023/08/17 15:49:28;;;;;;;3.60;1.30;;;;;;;32.94;41.83;100032.02;104325;1251;59752;-60
2023/08/17 15:51:56;;;;;;;1.30;1.10;;;;;;;32.89;43.01;100032.06;104422;1256;59683;-60
2023/08/17 15:54:23;;;;;;;2.30;1.40;;;;;;;32.80;43.64;100031.69;104570;1251;72833;-60
2023/08/17 15:57:06;;;;;;;2.40;1.20;;;;;;;32.70;43.11;100035.14;104321;1256;69128;-60
2023/08/17 15:59:33;;;;;;;2.70;1.40;;;;;;;32.59;43.11;100035.40;104494;1251;72437;-60
2023/08/17 16:02:02;;;;;;;1.90;1.60;;;;;;;32.45;43.23;100037.73;105711;1254;60858;-60
2023/08/17 16:04:30;;;;;;;2.60;1.50;;;;;;;32.34;43.70;100040.04;105100;1256;59687;-59
2023/08/17 16:07:00;;;;;;;2.30;1.50;;;;;;;32.22;45.33;100039.19;105097;1253;72859;-60
2023/08/17 16:09:27;;;;;;;5.80;1.30;;;;;;;32.07;47.24;100041.88;107539;1252;69662;-60
2023/08/17 16:11:58;;;;;;;2.40;1.20;;;;;;;31.88;47.13;100040.05;105824;1252;72376;-60
2023/08/17 16:14:25;;;;;;;1.90;1.20;;;;;;;31.68;46.81;100041.52;104560;1257;60164;-60
2023/08/17 16:16:53;;;;;;;3.40;1.30;;;;;;;31.47;46.22;100043.80;104460;1255;60122;-60
2023/08/17 16:19:26;;;;;;;3.90;1.40;;;;;;;31.31;46.76;100045.53;104348;1258;73713;-60
2023/08/17 16:21:54;;;;;;;2.60;1.30;;;;;;;31.16;46.56;100045.10;104407;1251;69169;-60
2023/08/17 16:24:22;;;;;;;3.70;1.30;;;;;;;31.01;47.54;100050.39;108475;1253;72303;-59
2023/08/17 16:26:53;;;;;;;1.90;1.20;;;;;;;30.87;48.67;100054.20;107935;1253;59970;-58
2023/08/17 16:29:21;;;;;;;1.80;1.40;;;;;;;30.73;50.76;100057.94;104680;1256;59698;-59
2023/08/17 16:32:02;;;;;;;3.80;1.40;;;;;;;30.53;52.42;100055.81;104676;1253;74675;-61
2023/08/17 16:34:33;;;;;;;2.10;1.20;;;;;;;30.31;53.81;100061.02;104545;1273;70095;-59
2023/08/17 16:37:01;;;;;;;1.60;1.50;;;;;;;30.17;53.38;100062.20;105036;1257;73393;-59
2023/08/17 16:39:28;;;;;;;1.20;1.10;;;;;;;30.05;55.16;100064.44;104340;1254;60555;-59
2023/08/17 16:41:56;;;;;;;2.20;1.60;;;;;;;29.93;53.73;100066.78;104481;1255;59553;-60
2023/08/17 16:44:24;;;;;;;1.50;1.40;;;;;;;29.83;55.41;100067.29;104508;1255;73634;-59
2023/08/17 16:46:55;;;;;;;1.50;1.40;;;;;;;29.72;55.98;100067.02;104280;1273;69044;-59
2023/08/17 16:49:23;;;;;;;1.90;1.40;;;;;;;29.58;57.17;100067.70;104302;1273;72399;-59
2023/08/17 16:51:58;;;;;;;6.50;1.60;;;;;;;29.45;59.20;100072.11;104504;1256;60584;-58
2023/08/17 16:54:26;;;;;;;1.50;1.40;;;;;;;29.32;61.76;100077.06;104496;1251;60645;-58
2023/08/17 16:56:53;;;;;;;;;;;;;;;29.17;63.32;100079.30;104573;1270;72857;-58
2023/08/17 16:59:21;;;;;;;2.80;1.30;;;;;;;29.01;66.63;100081.46;104454;1256;69263;-60
2023/08/17 17:01:52;;;;;;;8.30;2.40;;;;;;;28.88;63.18;100079.55;104373;1257;71478;-59
2023/08/17 17:04:22;;;;;;;3.60;1.60;;;;;;;28.79;65.87;100083.45;104317;1251;60884;-58
2023/08/17 17:06:50;;;;;;;3.00;1.30;;;;;;;28.66;69.13;100083.55;104634;1256;60682;-58
2023/08/17 17:09:18;;;;;;;;;;;;;;;28.53;68.87;100084.23;104342;1273;73563;-58
2023/08/17 17:11:46;;;;;;;10.30;3.20;;;;;;;28.43;67.35;100086.10;104356;1257;70118;-57
2023/08/17 17:14:14;;;;;;;4.40;2.00;;;;;;;28.36;69.58;100089.27;104289;1256;72341;-58
2023/08/17 17:16:41;;;;;;;;;;;;;;;28.25;73.00;100087.70;104738;1256;60568;-60
2023/08/17 17:19:09;;;;;;;10.70;3.20;;;;;;;28.14;73.98;100090.44;104516;1252;60607;-62
2023/08/17 17:21:39;;;;;;;6.50;2.20;;;;;;;28.01;76.89;100092.23;104443;1257;73693;-59
2023/08/17 17:24:09;;;;;;;5.80;2.00;;;;;;;27.91;75.57;100092.73;108466;1251;69122;-60
2023/08/17 17:26:38;;;;;;;;;;;;;;;27.83;76.65;100095.59;107393;1254;72477;-59
2023/08/17 17:29:06;;;;;;;2.30;1.90;;;;;;;27.73;78.55;100098.74;104377;1254;60543;-59
2023/08/17 17:31:34;;;;;;;2.20;2.00;;;;;;;27.67;79.96;100099.95;105010;1251;60440;-59
2023/08/17 17:34:04;;;;;;;4.00;1.80;;;;;;;27.61;79.09;100101.55;104415;1267;73653;-59
2023/08/17 17:36:35;;;;;;;2.80;1.80;;;;;;;27.54;82.86;100103.02;104634;1255;69020;-58
2023/08/17 17:39:04;;;;;;;9.60;2.60;;;;;;;27.48;83.21;100106.52;104517;1273;72919;-58
2023/08/17 17:41:31;;;;;;;10.80;3.30;;;;;;;27.41;81.58;100107.91;104320;1256;60427;-59
2023/08/17 17:43:59;;;;;;;5.40;2.30;;;;;;;27.37;85.62;100109.32;104554;1256;60533;-59
2023/08/17 17:46:27;;;;;;;7.50;3.40;;;;;;;27.31;86.65;100113.17;104293;1257;72966;-58
2023/08/17 17:48:55;;;;;;;;;;;;;;;27.25;86.91;100114.55;104455;1272;71248;-59
2023/08/17 17:51:23;;;;;;;5.90;2.60;;;;;;;27.18;87.20;100116.63;104411;1257;72369;-59
2023/08/17 17:53:50;;;;;;;;;;;;;;;27.11;85.80;100120.61;104442;1255;60542;-61
2023/08/17 17:56:39;;;;;;;2.00;1.80;;;;;;;27.06;87.16;100123.11;104265;1256;60577;-61
2023/08/17 17:59:07;;;;;;;3.60;1.80;;;;;;;26.98;87.98;100125.58;105941;1255;73728;-61
2023/08/17 18:01:38;;;;;;;18.20;5.80;;;;;;;26.93;88.54;100126.45;105146;1251;69944;-61
2023/08/17 18:04:06;;;;;;;3.10;2.30;;;;;;;26.83;91.42;100124.60;108460;1251;73422;-61
2023/08/17 18:06:34;;;;;;;;;;;;;;;26.76;90.96;100128.95;105335;1253;60536;-60
2023/08/17 18:09:04;;;;;;;3.80;2.30;;;;;;;26.69;95.33;100132.71;104385;1257;60517;-59
2023/08/17 18:11:32;;;;;;;1.80;1.70;;;;;;;26.60;94.54;100130.08;104929;1251;72640;-59
2023/08/17 18:14:00;;;;;;;;;;;;;;;26.51;97.00;100134.49;104511;1274;70736;-60
2023/08/17 18:16:28;;;;;;;2.40;1.60;;;;;;;26.40;99.37;100138.02;104411;1273;72448;-60
2023/08/17 18:18:56;;;;;;;3.20;1.90;;;;;;;26.26;99.96;100141.07;104353;1251;60545;-60
2023/08/17 18:21:24;;;;;;;;;;;;;;;26.14;100.00;100138.45;104384;1253;60956;-61
2023/08/17 18:23:51;;;;;;;;;;;;;;;26.04;100.00;100135.38;104428;1253;74488;-61
2023/08/17 18:26:19;;;;;;;3.60;1.90;;;;;;;25.91;100.00;100138.02;104434;1251;69976;-59
2023/08/17 18:28:48;;;;;;;4.30;2.00;;;;;;;25.81;100.00;100141.71;104555;1267;73306;-60
2023/08/17 18:31:15;;;;;;;4.10;2.00;;;;;;;25.73;100.00;100142.69;104511;1257;60654;-60